Time;durP1;ratioP1;P1;durP2;ratioP2;P2;SDS_P1;SDS_P2;PMS_P1;PMS_P2;Temp;Humidity;BMP_temperature;BMP_pressure;BME280_temperature;BME280_humidity;BME280_pressure;Samples;Min_cycle;Max_cycle;Signal;HPM_P1;HPM_P2
2023/09/18 00:00:51;;;;;;;10.45;7.50;;;19.80;99.90;;;;;;5091382;28;20530;-85
2023/09/18 00:03:24;;;;;;;7.28;6.00;;;19.80;99.90;;;;;;5090835;28;20116;-86
2023/09/18 00:05:50;;;;;;;6.53;5.72;;;19.80;99.90;;;;;;5090864;28;20035;-84
2023/09/18 00:08:17;;;;;;;12.15;6.00;;;19.80;99.90;;;;;;5092108;28;20024;-85
2023/09/18 00:10:48;;;;;;;7.95;5.57;;;19.70;99.90;;;;;;5092003;28;20024;-84
2023/09/18 00:13:13;;;;;;;8.93;6.28;;;19.70;99.90;;;;;;5090791;28;20119;-83
2023/09/18 00:15:40;;;;;;;8.70;6.18;;;19.70;99.90;;;;;;5091665;28;20135;-84
2023/09/18 00:18:07;;;;;;;7.15;5.30;;;19.70;99.90;;;;;;5090421;28;20028;-84
2023/09/18 00:20:34;;;;;;;7.63;6.13;;;19.70;99.90;;;;;;5090415;28;20024;-84
2023/09/18 00:23:00;;;;;;;8.05;6.00;;;19.70;99.90;;;;;;5091744;28;20046;-84
2023/09/18 00:25:26;;;;;;;9.63;5.82;;;19.70;99.90;;;;;;5090248;28;20028;-84
2023/09/18 00:27:52;;;;;;;7.93;5.50;;;19.70;99.90;;;;;;5091541;28;20405;-85
2023/09/18 00:30:17;;;;;;;8.20;6.25;;;19.60;99.90;;;;;;5091424;28;20439;-82
2023/09/18 00:32:43;;;;;;;6.57;5.35;;;19.60;99.90;;;;;;5090975;28;20508;-84
2023/09/18 00:35:09;;;;;;;8.80;5.43;;;19.60;99.90;;;;;;5089804;28;20069;-85
2023/09/18 00:37:36;;;;;;;7.72;5.75;;;19.60;99.90;;;;;;5091242;28;20048;-85
2023/09/18 00:40:04;;;;;;;13.23;6.32;;;19.60;99.90;;;;;;5091234;28;20307;-84
2023/09/18 00:42:30;;;;;;;7.60;6.43;;;19.50;99.90;;;;;;5089889;28;20036;-84
2023/09/18 00:44:56;;;;;;;8.85;6.25;;;19.50;99.90;;;;;;5091252;28;20035;-84
2023/09/18 00:47:21;;;;;;;6.55;5.63;;;19.50;99.90;;;;;;5089582;28;20032;-85
2023/09/18 00:49:49;;;;;;;9.38;6.13;;;19.40;99.90;;;;;;5091057;28;20606;-85
2023/09/18 00:52:17;;;;;;;7.38;5.80;;;19.40;99.90;;;;;;5091206;28;20024;-84
2023/09/18 00:54:44;;;;;;;8.20;5.55;;;19.40;99.90;;;;;;5090045;28;20581;-84
2023/09/18 00:57:10;;;;;;;11.65;5.68;;;19.30;99.90;;;;;;5091026;28;20134;-86
2023/09/18 00:59:37;;;;;;;10.77;6.07;;;19.30;99.90;;;;;;5091232;28;20121;-84
2023/09/18 01:02:03;;;;;;;8.10;6.57;;;19.10;99.90;;;;;;5089637;28;20028;-84
2023/09/18 01:04:32;;;;;;;9.63;6.10;;;19.10;99.90;;;;;;5089419;28;20032;-85
2023/09/18 01:06:59;;;;;;;9.35;5.47;;;19.10;99.90;;;;;;5090533;28;20024;-84
2023/09/18 01:09:25;;;;;;;8.18;5.97;;;19.10;99.90;;;;;;5090773;28;20024;-85
2023/09/18 01:11:59;;;;;;;6.90;5.50;;;19.10;99.90;;;;;;5089725;28;20089;-85
2023/09/18 01:14:36;;;;;;;6.13;5.13;;;19.00;99.90;;;;;;5091121;28;20031;-84
2023/09/18 01:17:05;;;;;;;9.13;5.57;;;19.00;99.90;;;;;;5088808;28;20044;-83
2023/09/18 01:19:39;;;;;;;6.82;5.55;;;19.00;99.90;;;;;;5090455;28;20040;-84
2023/09/18 01:22:06;;;;;;;9.43;6.18;;;19.00;99.90;;;;;;5090500;28;20081;-85
2023/09/18 01:24:36;;;;;;;7.85;6.03;;;19.00;99.90;;;;;;5090814;28;20028;-84
2023/09/18 01:27:05;;;;;;;8.68;5.78;;;19.00;99.90;;;;;;5089805;28;20158;-85
2023/09/18 01:29:31;;;;;;;6.07;5.10;;;19.00;99.90;;;;;;5090886;28;20024;-84
2023/09/18 01:31:58;;;;;;;7.50;5.68;;;19.00;99.90;;;;;;5089322;28;20114;-85
2023/09/18 01:34:33;;;;;;;9.55;5.40;;;18.90;99.90;;;;;;5088922;28;20056;-85
2023/09/18 01:37:00;;;;;;;11.85;6.63;;;19.00;99.90;;;;;;5089177;28;20024;-85
2023/09/18 01:39:31;;;;;;;8.20;5.78;;;18.90;99.90;;;;;;5089081;28;20020;-84
2023/09/18 01:42:01;;;;;;;10.27;5.93;;;19.00;99.90;;;;;;5089971;28;20020;-86
2023/09/18 01:44:28;;;;;;;8.70;5.43;;;19.00;99.90;;;;;;5089322;28;20035;-85
2023/09/18 01:46:56;;;;;;;6.63;4.93;;;19.00;99.90;;;;;;5088752;28;20024;-85
2023/09/18 01:49:29;;;;;;;7.63;6.00;;;19.00;99.90;;;;;;5090234;28;20020;-85
2023/09/18 01:51:55;;;;;;;15.38;6.28;;;19.00;99.90;;;;;;5090284;28;20031;-85
2023/09/18 01:54:21;;;;;;;11.23;5.90;;;19.00;99.90;;;;;;5088855;28;20016;-85
2023/09/18 01:56:47;;;;;;;8.82;6.55;;;19.10;99.90;;;;;;5088962;28;20039;-85
2023/09/18 01:59:12;;;;;;;7.18;5.28;;;19.00;99.90;;;;;;5088704;28;20862;-85
2023/09/18 02:01:38;;;;;;;10.88;5.97;;;19.10;99.90;;;;;;5088330;28;20536;-86
2023/09/18 02:04:05;;;;;;;9.88;5.43;;;19.00;99.90;;;;;;5088328;28;20115;-86
2023/09/18 02:06:30;;;;;;;9.68;6.68;;;19.00;99.90;;;;;;5088809;28;20024;-85
2023/09/18 02:08:56;;;;;;;7.70;5.40;;;19.00;99.90;;;;;;5089896;28;20127;-85
2023/09/18 02:11:22;;;;;;;9.50;5.93;;;19.00;99.90;;;;;;5088347;28;20089;-84
2023/09/18 02:13:47;;;;;;;8.43;5.35;;;19.00;99.90;;;;;;5089094;28;20433;-84
2023/09/18 02:16:13;;;;;;;9.65;6.88;;;19.00;99.90;;;;;;5089340;28;20052;-86
2023/09/18 02:18:38;;;;;;;5.80;5.15;;;18.90;99.90;;;;;;5089200;28;20032;-85
2023/09/18 02:21:04;;;;;;;9.93;5.10;;;18.90;99.90;;;;;;5090111;28;20024;-85
2023/09/18 02:23:30;;;;;;;12.10;6.03;;;18.90;99.90;;;;;;5090026;28;20028;-85
2023/09/18 02:25:59;;;;;;;7.80;6.03;;;18.90;99.90;;;;;;5088325;28;20063;-86
2023/09/18 02:28:25;;;;;;;9.52;6.72;;;18.90;99.90;;;;;;5088860;28;20531;-85
2023/09/18 02:30:51;;;;;;;18.67;7.13;;;18.90;99.90;;;;;;5086821;28;20035;-85
2023/09/18 02:33:17;;;;;;;11.93;5.95;;;18.90;99.90;;;;;;5087056;28;20032;-86
2023/09/18 02:35:43;;;;;;;9.40;6.32;;;18.90;99.90;;;;;;5087169;28;20034;-84
2023/09/18 02:38:09;;;;;;;10.95;6.28;;;18.90;99.90;;;;;;5086817;28;20123;-86
2023/09/18 02:40:35;;;;;;;9.93;6.35;;;18.80;99.90;;;;;;5087143;28;20119;-85
2023/09/18 02:43:02;;;;;;;15.45;6.70;;;18.80;99.90;;;;;;5086797;28;20054;-87
2023/09/18 02:45:27;;;;;;;11.57;6.55;;;18.80;99.90;;;;;;5088396;28;20030;-86
2023/09/18 02:47:53;;;;;;;10.90;7.20;;;18.80;99.90;;;;;;5088074;28;20042;-85
2023/09/18 02:50:19;;;;;;;9.60;5.82;;;18.80;99.90;;;;;;5088692;28;20534;-86
2023/09/18 02:52:44;;;;;;;7.68;6.10;;;18.70;99.90;;;;;;5087728;28;20035;-87
2023/09/18 02:55:10;;;;;;;10.90;6.57;;;18.70;99.90;;;;;;5088648;28;20036;-84
2023/09/18 02:57:36;;;;;;;8.70;6.35;;;18.60;99.90;;;;;;5092640;28;20036;-85
2023/09/18 03:00:03;;;;;;;8.50;6.63;;;18.60;99.90;;;;;;5093238;28;20043;-87
2023/09/18 03:02:29;;;;;;;11.23;7.00;;;18.50;99.90;;;;;;5091883;28;20062;-85
2023/09/18 03:04:55;;;;;;;12.40;7.25;;;18.40;99.90;;;;;;5092436;28;20031;-87
2023/09/18 03:07:22;;;;;;;9.95;6.57;;;18.30;99.90;;;;;;5092478;28;20393;-84
2023/09/18 03:09:47;;;;;;;12.27;6.93;;;18.30;99.90;;;;;;5091243;28;20032;-86
2023/09/18 03:12:13;;;;;;;10.20;7.13;;;18.20;99.90;;;;;;5092209;28;20122;-86
2023/09/18 03:14:39;;;;;;;10.38;6.47;;;18.20;99.90;;;;;;5091931;28;20063;-84
2023/09/18 03:17:05;;;;;;;11.73;7.38;;;18.10;99.90;;;;;;5091401;28;20051;-85
2023/09/18 03:19:30;;;;;;;10.15;6.68;;;18.00;99.90;;;;;;5093152;28;20349;-85
2023/09/18 03:21:56;;;;;;;8.77;6.60;;;18.00;99.90;;;;;;5092974;28;20055;-86
2023/09/18 03:24:22;;;;;;;9.95;6.47;;;18.00;99.90;;;;;;5094540;28;20028;-86
2023/09/18 03:26:49;;;;;;;8.63;6.90;;;18.00;99.90;;;;;;5092728;28;20067;-86
2023/09/18 03:29:14;;;;;;;10.55;7.78;;;18.00;99.90;;;;;;5092685;28;20020;-86
2023/09/18 03:31:40;;;;;;;11.05;6.97;;;17.90;99.90;;;;;;5091402;28;20050;-86
2023/09/18 03:34:06;;;;;;;14.35;7.78;;;17.90;99.90;;;;;;5091263;28;20039;-84
2023/09/18 03:36:32;;;;;;;11.77;7.53;;;17.90;99.90;;;;;;5092432;28;20024;-87
2023/09/18 03:38:58;;;;;;;12.20;6.97;;;17.90;99.90;;;;;;5091753;28;20040;-86
2023/09/18 03:41:23;;;;;;;10.40;7.05;;;17.90;99.90;;;;;;5092745;28;20028;-86
2023/09/18 03:43:50;;;;;;;13.13;8.23;;;17.90;99.90;;;;;;5091246;28;20036;-87
2023/09/18 03:46:16;;;;;;;12.40;7.65;;;17.90;99.90;;;;;;5092753;28;20028;-86
2023/09/18 03:48:41;;;;;;;11.48;7.25;;;17.80;99.90;;;;;;5092218;28;20389;-84
2023/09/18 03:51:08;;;;;;;10.68;7.72;;;17.80;99.90;;;;;;5092471;28;20024;-85
2023/09/18 03:53:34;;;;;;;16.33;7.22;;;17.70;99.90;;;;;;5092706;28;20571;-86
2023/09/18 03:56:00;;;;;;;14.93;7.95;;;17.70;99.90;;;;;;5092397;28;20147;-86
2023/09/18 03:58:26;;;;;;;16.45;8.25;;;17.60;99.90;;;;;;5092648;28;20039;-84
2023/09/18 04:00:52;;;;;;;16.38;8.27;;;17.50;99.90;;;;;;5091245;28;20047;-86
2023/09/18 04:03:18;;;;;;;12.05;7.97;;;17.50;99.90;;;;;;5092283;28;20102;-86
2023/09/18 04:05:45;;;;;;;12.70;7.90;;;17.50;99.90;;;;;;5089996;28;20508;-87
2023/09/18 04:08:11;;;;;;;10.30;7.47;;;17.50;99.90;;;;;;5092171;28;20110;-88
2023/09/18 04:10:37;;;;;;;13.35;7.70;;;17.50;99.90;;;;;;5092266;28;20032;-87
2023/09/18 04:13:03;;;;;;;13.48;8.57;;;17.40;99.90;;;;;;5091928;28;20031;-88
2023/09/18 04:15:30;;;;;;;13.48;7.43;;;17.40;99.90;;;;;;5090807;28;20538;-88
2023/09/18 04:17:56;;;;;;;10.02;8.07;;;17.40;99.90;;;;;;5091178;28;20043;-87
2023/09/18 04:20:22;;;;;;;20.30;7.60;;;17.40;99.90;;;;;;5092088;28;20028;-86
2023/09/18 04:23:27;;;;;;;10.38;7.88;;;17.40;99.90;;;;;;5090787;28;20066;-88
2023/09/18 04:25:54;;;;;;;21.20;8.20;;;17.50;99.90;;;;;;5092057;28;20028;-86
2023/09/18 04:28:22;;;;;;;14.15;8.38;;;17.40;99.90;;;;;;5090781;28;20039;-86
2023/09/18 04:30:48;;;;;;;12.48;7.22;;;17.40;99.90;;;;;;5090633;28;20448;-88
2023/09/18 04:33:14;;;;;;;10.20;8.15;;;17.50;99.90;;;;;;5090424;28;20024;-86
2023/09/18 04:35:40;;;;;;;10.55;8.10;;;17.50;99.90;;;;;;5091155;28;20020;-85
2023/09/18 04:38:08;;;;;;;12.10;7.72;;;17.50;99.90;;;;;;5090339;28;20123;-86
2023/09/18 04:40:34;;;;;;;13.55;7.65;;;17.50;99.90;;;;;;5090113;28;20047;-86
2023/09/18 04:43:00;;;;;;;13.60;7.88;;;17.40;99.90;;;;;;5090262;28;20028;-87
2023/09/18 04:45:26;;;;;;;10.68;7.20;;;17.50;99.90;;;;;;5091243;28;20077;-85
2023/09/18 04:47:53;;;;;;;12.15;7.93;;;17.50;99.90;;;;;;5090369;28;20052;-85
2023/09/18 04:50:18;;;;;;;11.85;7.88;;;17.50;99.90;;;;;;5091404;28;20031;-87
2023/09/18 04:52:44;;;;;;;12.55;7.40;;;17.50;99.90;;;;;;5091226;28;20028;-87
2023/09/18 04:55:11;;;;;;;10.60;8.32;;;17.50;99.90;;;;;;5091470;28;20023;-85
2023/09/18 04:57:37;;;;;;;13.32;7.45;;;17.50;99.90;;;;;;5089921;28;20032;-85
2023/09/18 05:00:08;;;;;;;13.85;7.80;;;17.60;99.90;;;;;;5091184;28;20032;-86
2023/09/18 05:02:34;;;;;;;14.43;7.68;;;17.70;99.90;;;;;;5091438;28;20024;-87
2023/09/18 05:05:00;;;;;;;14.25;7.47;;;17.70;99.90;;;;;;5091367;28;20027;-87
2023/09/18 05:07:26;;;;;;;11.40;6.82;;;17.80;99.90;;;;;;5089820;28;20389;-87
2023/09/18 05:09:52;;;;;;;13.05;7.35;;;17.80;99.90;;;;;;5091324;28;20024;-86
2023/09/18 05:12:18;;;;;;;14.43;7.82;;;17.90;99.90;;;;;;5089905;28;20122;-85
2023/09/18 05:14:44;;;;;;;8.18;6.82;;;18.00;99.90;;;;;;5091560;28;20119;-86
2023/09/18 05:17:17;;;;;;;8.15;6.40;;;18.10;99.90;;;;;;5089579;28;20052;-87
2023/09/18 05:19:43;;;;;;;9.07;6.22;;;18.20;99.90;;;;;;5091068;28;20032;-86
2023/09/18 05:22:12;;;;;;;10.07;6.63;;;18.20;99.90;;;;;;5091042;28;20028;-86
2023/09/18 05:24:38;;;;;;;10.48;6.50;;;18.30;99.90;;;;;;5090865;28;20039;-87
2023/09/18 05:27:06;;;;;;;8.82;6.57;;;18.50;99.90;;;;;;5090837;28;20053;-86
2023/09/18 05:29:32;;;;;;;10.93;6.47;;;18.70;99.90;;;;;;5089732;28;20492;-84
2023/09/18 05:31:57;;;;;;;12.38;6.30;;;19.00;99.90;;;;;;5090857;28;20024;-86
2023/09/18 05:34:23;;;;;;;19.13;7.10;;;19.40;99.90;;;;;;5089226;28;20396;-83
2023/09/18 05:36:49;;;;;;;9.77;6.25;;;19.80;99.90;;;;;;5089386;28;20024;-85
2023/09/18 05:39:16;;;;;;;13.32;6.25;;;20.10;99.90;;;;;;5088613;28;20040;-84
2023/09/18 05:41:42;;;;;;;15.13;6.28;;;20.40;99.90;;;;;;5089954;28;20062;-84
2023/09/18 05:44:09;;;;;;;8.50;5.40;;;20.70;99.90;;;;;;5089164;28;20056;-84
2023/09/18 05:46:35;;;;;;;14.60;5.45;;;20.90;99.90;;;;;;5088878;28;20083;-82
2023/09/18 05:49:01;;;;;;;8.93;5.70;;;21.10;99.90;;;;;;5089719;28;20028;-82
2023/09/18 05:51:27;;;;;;;8.35;5.75;;;21.30;99.90;;;;;;5088525;28;20477;-82
2023/09/18 05:53:53;;;;;;;12.38;5.53;;;21.30;99.90;;;;;;5090217;28;20016;-83
2023/09/18 05:56:18;;;;;;;9.18;5.78;;;21.40;99.90;;;;;;5090552;28;20073;-85
2023/09/18 05:58:44;;;;;;;8.73;5.47;;;21.40;99.90;;;;;;5090075;28;20396;-84
2023/09/18 06:01:10;;;;;;;11.60;5.55;;;21.50;99.90;;;;;;5089111;28;20453;-83
2023/09/18 06:03:36;;;;;;;9.25;5.53;;;21.60;99.90;;;;;;5088763;28;20043;-85
2023/09/18 06:06:10;;;;;;;9.75;5.88;;;21.60;99.90;;;;;;5090263;28;20569;-84
2023/09/18 06:08:36;;;;;;;11.82;5.97;;;21.80;99.90;;;;;;5087991;28;20034;-83
2023/09/18 06:11:02;;;;;;;7.47;5.90;;;21.80;99.90;;;;;;5088901;28;20115;-85
2023/09/18 06:13:28;;;;;;;7.32;4.68;;;21.90;99.90;;;;;;5088998;28;20032;-83
2023/09/18 06:15:55;;;;;;;9.90;5.15;;;22.00;99.90;;;;;;5088511;28;20048;-85
2023/09/18 06:18:21;;;;;;;9.90;5.85;;;22.20;99.90;;;;;;5089697;28;20058;-83
2023/09/18 06:20:47;;;;;;;7.55;5.15;;;22.50;99.90;;;;;;5090174;28;20501;-84
2023/09/18 06:23:13;;;;;;;17.60;6.30;;;22.70;99.90;;;;;;5089551;28;20089;-84
2023/09/18 06:25:39;;;;;;;6.05;4.72;;;23.00;99.90;;;;;;5088712;28;20480;-84
2023/09/18 06:28:05;;;;;;;7.78;5.50;;;23.20;99.70;;;;;;5089688;28;20028;-84
2023/09/18 06:30:33;;;;;;;10.57;5.18;;;23.40;98.80;;;;;;5089204;28;20519;-84
2023/09/18 06:32:59;;;;;;;13.68;5.20;;;23.80;99.00;;;;;;5089854;28;20533;-84
2023/09/18 06:35:25;;;;;;;6.22;4.45;;;24.60;96.90;;;;;;5090024;28;20028;-84
2023/09/18 06:37:51;;;;;;;6.85;4.22;;;25.20;94.60;;;;;;5089610;28;20512;-84
2023/09/18 06:40:17;;;;;;;8.30;4.32;;;25.70;93.20;;;;;;5088262;28;20035;-84
2023/09/18 06:42:43;;;;;;;9.18;4.72;;;26.30;90.80;;;;;;5088110;28;20024;-83
2023/09/18 06:45:08;;;;;;;7.43;4.00;;;26.80;86.20;;;;;;5087851;28;20093;-80
2023/09/18 06:47:34;;;;;;;9.73;4.45;;;27.20;80.50;;;;;;5089205;28;20043;-83
2023/09/18 06:50:00;;;;;;;9.95;4.68;;;27.40;78.50;;;;;;5088106;28;20027;-82
2023/09/18 06:52:27;;;;;;;13.25;4.97;;;27.30;75.50;;;;;;5089171;28;20496;-81
2023/09/18 06:54:53;;;;;;;8.32;4.35;;;27.20;76.10;;;;;;5089743;28;20024;-81
2023/09/18 06:57:21;;;;;;;9.75;4.35;;;27.30;75.20;;;;;;5087893;28;20514;-80
2023/09/18 06:59:47;;;;;;;6.65;3.72;;;27.50;73.00;;;;;;5089351;28;20052;-82
2023/09/18 07:02:16;;;;;;;8.27;4.20;;;27.40;73.50;;;;;;5089020;28;20025;-84
2023/09/18 07:04:45;;;;;;;9.77;4.88;;;27.30;73.00;;;;;;5089035;28;20028;-82
2023/09/18 07:07:15;;;;;;;7.60;3.80;;;27.40;73.20;;;;;;5088975;28;20031;-81
2023/09/18 07:09:43;;;;;;;34.28;5.82;;;27.50;72.30;;;;;;5087442;28;20055;-81
2023/09/18 07:12:09;;;;;;;8.50;4.63;;;28.00;71.00;;;;;;5088754;28;20028;-82
2023/09/18 07:14:36;;;;;;;9.68;4.40;;;28.50;68.50;;;;;;5088905;28;20032;-82
2023/09/18 07:17:02;;;;;;;6.05;4.28;;;28.50;67.60;;;;;;5087179;28;20048;-82
2023/09/18 07:19:28;;;;;;;9.40;4.15;;;28.70;66.90;;;;;;5088924;28;20068;-81
2023/09/18 07:21:53;;;;;;;7.85;5.10;;;29.00;65.90;;;;;;5089165;28;20063;-82
2023/09/18 07:27:03;;;;;;;9.55;4.80;;;28.50;65.90;;;;;;5089317;28;20031;-82
2023/09/18 07:29:29;;;;;;;8.57;4.60;;;28.80;65.40;;;;;;5088039;28;20020;-82
2023/09/18 07:31:54;;;;;;;6.47;4.50;;;29.10;65.00;;;;;;5087769;28;20035;-83
2023/09/18 07:34:20;;;;;;;5.95;4.50;;;29.60;63.10;;;;;;5087847;28;20021;-84
2023/09/18 07:36:45;;;;;;;11.63;6.32;;;30.20;60.60;;;;;;5087643;28;20028;-82
2023/09/18 07:39:11;;;;;;;7.95;5.20;;;30.10;60.10;;;;;;5088942;28;20497;-82
2023/09/18 07:41:37;;;;;;;6.25;4.80;;;30.10;60.60;;;;;;5089966;28;20042;-83
2023/09/18 07:44:03;;;;;;;7.75;4.10;;;29.80;59.90;;;;;;5092804;28;20032;-81
2023/09/18 07:46:29;;;;;;;8.90;4.93;;;29.60;60.40;;;;;;5092129;28;20492;-80
2023/09/18 07:48:55;;;;;;;6.35;5.22;;;29.50;60.00;;;;;;5091561;28;20053;-82
2023/09/18 07:51:21;;;;;;;7.78;5.05;;;29.30;61.30;;;;;;5090750;28;20484;-81
2023/09/18 07:53:47;;;;;;;15.10;5.00;;;29.50;60.00;;;;;;5092244;28;20035;-80
2023/09/18 07:56:12;;;;;;;8.05;4.90;;;29.60;60.90;;;;;;5092316;28;20094;-80
2023/09/18 07:58:38;;;;;;;11.77;5.90;;;29.70;60.20;;;;;;5090763;28;20074;-83
2023/09/18 08:01:09;;;;;;;7.40;4.78;;;29.60;59.40;;;;;;5091807;28;20068;-82
2023/09/18 08:03:34;;;;;;;8.85;5.15;;;29.70;59.60;;;;;;5092379;28;20026;-82
2023/09/18 08:06:00;;;;;;;7.18;4.85;;;29.50;59.70;;;;;;5090485;28;20024;-80
2023/09/18 08:08:26;;;;;;;7.82;5.15;;;29.30;59.70;;;;;;5090657;28;20048;-82
2023/09/18 08:10:53;;;;;;;11.05;4.65;;;29.40;60.90;;;;;;5091709;28;20085;-82
2023/09/18 08:13:23;;;;;;;6.10;4.30;;;29.70;60.50;;;;;;5092184;28;20024;-84
2023/09/18 08:15:48;;;;;;;8.10;4.18;;;29.90;59.20;;;;;;5090709;28;20144;-82
2023/09/18 08:18:14;;;;;;;6.53;4.55;;;29.80;59.00;;;;;;5091600;28;20111;-80
2023/09/18 08:20:43;;;;;;;6.13;4.90;;;30.00;58.60;;;;;;5090330;28;20031;-84
2023/09/18 08:23:12;;;;;;;10.55;4.65;;;30.30;58.30;;;;;;5090832;28;20031;-84
2023/09/18 08:25:39;;;;;;;5.97;4.00;;;30.20;58.20;;;;;;5090695;28;20036;-84
2023/09/18 08:28:06;;;;;;;8.43;5.38;;;30.20;58.00;;;;;;5090800;28;20031;-81
2023/09/18 08:30:32;;;;;;;10.20;4.70;;;29.60;58.60;;;;;;5091463;28;20048;-80
2023/09/18 08:32:58;;;;;;;7.35;4.95;;;29.20;59.80;;;;;;5089804;28;20067;-79
2023/09/18 08:35:27;;;;;;;13.57;4.97;;;28.70;60.90;;;;;;5090973;28;20021;-81
2023/09/18 08:37:53;;;;;;;12.13;4.95;;;28.20;62.10;;;;;;5089491;28;20089;-81
2023/09/18 08:40:19;;;;;;;14.00;4.90;;;28.00;63.00;;;;;;5091106;28;20041;-83
2023/09/18 08:42:47;;;;;;;10.15;4.78;;;27.80;63.10;;;;;;5090951;28;20030;-83
2023/09/18 08:45:36;;;;;;;10.30;5.88;;;27.90;63.60;;;;;;5090852;28;20032;-81
2023/09/18 08:48:03;;;;;;;14.32;5.40;;;28.10;63.10;;;;;;5090586;28;20020;-81
2023/09/18 08:50:29;;;;;;;7.47;4.95;;;28.20;63.00;;;;;;5089113;28;20024;-82
2023/09/18 08:52:56;;;;;;;6.60;4.78;;;28.10;63.50;;;;;;5088925;28;20048;-82
2023/09/18 08:55:23;;;;;;;7.10;4.65;;;28.00;63.60;;;;;;5091225;28;20054;-85
2023/09/18 08:57:49;;;;;;;8.48;4.90;;;28.10;64.40;;;;;;5091155;28;20086;-84
2023/09/18 09:00:18;;;;;;;10.60;4.72;;;28.60;64.70;;;;;;5090164;28;20443;-85
2023/09/18 09:02:44;;;;;;;12.52;5.65;;;29.00;62.70;;;;;;5091241;28;20557;-84
2023/09/18 09:05:10;;;;;;;8.27;4.78;;;29.30;61.10;;;;;;5089708;28;20048;-83
2023/09/18 09:07:35;;;;;;;9.57;4.90;;;29.40;60.60;;;;;;5091170;28;20059;-81
2023/09/18 09:10:01;;;;;;;6.47;4.80;;;29.80;60.30;;;;;;5091141;28;20032;-85
2023/09/18 09:12:53;;;;;;;6.97;4.50;;;30.00;59.80;;;;;;5089980;28;20032;-83
2023/09/18 09:15:31;;;;;;;8.35;5.13;;;29.90;57.90;;;;;;5090926;28;20035;-82
2023/09/18 09:18:05;;;;;;;11.60;4.95;;;29.30;58.90;;;;;;5089769;28;20038;-82
2023/09/18 09:20:31;;;;;;;9.73;4.05;;;29.50;60.20;;;;;;5091026;28;20020;-82
2023/09/18 09:23:01;;;;;;;12.48;5.25;;;29.80;59.50;;;;;;5089511;28;20024;-81
2023/09/18 09:25:32;;;;;;;9.88;4.15;;;29.70;58.20;;;;;;5090875;28;20028;-82
2023/09/18 09:27:59;;;;;;;11.48;4.03;;;29.50;58.90;;;;;;5090862;28;20032;-82
2023/09/18 09:30:27;;;;;;;17.33;4.28;;;29.50;59.20;;;;;;5091161;28;20545;-81
2023/09/18 09:32:57;;;;;;;7.43;4.57;;;29.60;58.80;;;;;;5089630;28;20032;-82
2023/09/18 09:35:30;;;;;;;7.38;4.90;;;29.60;59.40;;;;;;5090243;28;20117;-84
2023/09/18 09:38:11;;;;;;;8.57;4.55;;;30.00;59.70;;;;;;5090462;28;20066;-84
2023/09/18 09:40:42;;;;;;;9.13;4.78;;;30.00;58.60;;;;;;5090716;28;20024;-83
2023/09/18 09:43:10;;;;;;;7.47;4.68;;;30.00;57.80;;;;;;5090448;28;20031;-80
2023/09/18 09:45:36;;;;;;;10.73;4.90;;;29.80;58.00;;;;;;5090211;28;20392;-81
2023/09/18 09:48:06;;;;;;;19.73;5.45;;;29.80;58.00;;;;;;5088852;28;20120;-83
2023/09/18 09:50:32;;;;;;;10.45;6.25;;;30.00;57.50;;;;;;5090659;28;20027;-82
2023/09/18 09:52:59;;;;;;;9.80;5.15;;;29.80;58.30;;;;;;5088856;28;20024;-84
2023/09/18 09:55:29;;;;;;;14.18;5.20;;;29.80;58.70;;;;;;5088630;28;20119;-82
2023/09/18 09:58:03;;;;;;;6.22;4.00;;;30.00;58.70;;;;;;5089027;28;20495;-84
2023/09/18 10:00:49;;;;;;;6.15;4.38;;;29.80;57.10;;;;;;5089309;28;20020;-84
2023/09/18 10:03:19;;;;;;;;;;;29.50;57.90;;;;;;5089765;28;20415;-82
2023/09/18 10:05:47;;;;;;;7.10;4.10;;;29.40;58.60;;;;;;5088962;28;19915;-81
2023/09/18 10:08:17;;;;;;;9.25;4.45;;;29.60;57.90;;;;;;5089447;28;20068;-80
2023/09/18 10:10:48;;;;;;;6.82;3.83;;;30.00;57.60;;;;;;5088498;28;20059;-81
2023/09/18 10:13:41;;;;;;;7.65;4.07;;;30.60;56.30;;;;;;5089630;28;20520;-81
2023/09/18 10:16:10;;;;;;;11.93;4.57;;;30.60;55.20;;;;;;5089764;28;20051;-82
2023/09/18 10:18:47;;;;;;;10.48;4.43;;;30.30;55.50;;;;;;5088403;28;20451;-82
2023/09/18 10:21:48;;;;;;;19.58;4.75;;;29.80;57.10;;;;;;5088744;28;20032;-83
2023/09/18 10:24:14;;;;;;;21.80;4.70;;;29.20;57.80;;;;;;5052915;28;20427;-83
2023/09/18 10:26:50;;;;;;;10.10;4.43;;;28.80;59.10;;;;;;5088178;28;20035;-83
2023/09/18 10:29:19;;;;;;;11.82;4.10;;;28.60;59.10;;;;;;5089100;28;20366;-83
2023/09/18 10:31:46;;;;;;;6.40;4.50;;;28.30;59.10;;;;;;5089238;28;20488;-83
2023/09/18 10:34:15;;;;;;;8.07;4.22;;;28.00;60.20;;;;;;5087961;28;20034;-82
2023/09/18 10:36:44;;;;;;;9.25;4.05;;;27.90;60.90;;;;;;5087601;28;20135;-82
2023/09/18 10:39:12;;;;;;;12.05;4.10;;;27.80;60.70;;;;;;5087636;28;20320;-84
2023/09/18 10:41:39;;;;;;;13.70;4.38;;;27.70;60.70;;;;;;5087938;28;20032;-81
2023/09/18 10:44:06;;;;;;;9.45;4.40;;;27.70;62.20;;;;;;5087933;28;20058;-83
2023/09/18 10:46:32;;;;;;;8.07;4.03;;;27.90;61.60;;;;;;5087634;28;20048;-82
2023/09/18 10:49:00;;;;;;;14.23;4.65;;;27.70;60.10;;;;;;5087857;28;20020;-82
2023/09/18 10:51:27;;;;;;;9.23;4.85;;;27.50;60.90;;;;;;5087863;28;20528;-81
2023/09/18 10:53:55;;;;;;;9.57;4.32;;;27.50;62.00;;;;;;5089232;28;20017;-80
2023/09/18 10:56:21;;;;;;;6.88;3.90;;;27.50;61.60;;;;;;5088919;28;20036;-83
2023/09/18 10:58:59;;;;;;;7.95;3.95;;;27.50;61.10;;;;;;5087840;28;20043;-82
2023/09/18 11:01:27;;;;;;;10.95;4.00;;;27.50;61.70;;;;;;5088638;28;20102;-82
2023/09/18 11:03:53;;;;;;;6.40;3.97;;;27.50;61.20;;;;;;5089160;28;20043;-82
2023/09/18 11:06:21;;;;;;;6.18;3.65;;;27.40;61.90;;;;;;5087718;28;20572;-82
2023/09/18 11:08:49;;;;;;;8.00;4.35;;;27.40;62.30;;;;;;5088930;28;20031;-81
2023/09/18 11:11:20;;;;;;;9.70;4.40;;;27.40;61.80;;;;;;5087643;28;20021;-81
2023/09/18 11:13:47;;;;;;;9.10;4.50;;;27.40;61.80;;;;;;5088878;28;20516;-82
2023/09/18 11:16:33;;;;;;;8.60;3.88;;;27.50;62.30;;;;;;5090899;28;20358;-82
2023/09/18 11:19:01;;;;;;;9.15;3.58;;;27.60;61.80;;;;;;5092712;28;20044;-80
2023/09/18 11:21:28;;;;;;;7.63;4.43;;;27.60;60.40;;;;;;5091109;28;20102;-81
2023/09/18 11:24:05;;;;;;;13.57;4.00;;;27.50;61.50;;;;;;5092450;28;20020;-81
2023/09/18 11:26:35;;;;;;;8.00;3.72;;;27.50;61.60;;;;;;5091026;28;20109;-81
2023/09/18 11:29:06;;;;;;;12.13;3.25;;;27.40;61.50;;;;;;5091298;28;20034;-81
2023/09/18 11:31:53;;;;;;;10.02;3.72;;;27.40;62.00;;;;;;5092516;28;20024;-81
2023/09/18 11:34:35;;;;;;;8.13;3.67;;;27.40;61.20;;;;;;5091095;28;20511;-80
2023/09/18 11:37:18;;;;;;;5.63;3.50;;;27.60;61.20;;;;;;5090791;28;20032;-83
2023/09/18 11:39:45;;;;;;;7.00;3.75;;;27.80;60.90;;;;;;5092088;28;20032;-82
2023/09/18 11:42:26;;;;;;;14.73;3.80;;;28.00;60.60;;;;;;5091079;28;20035;-81
2023/09/18 11:44:53;;;;;;;5.05;3.90;;;28.00;60.40;;;;;;5092405;28;20055;-80
2023/09/18 11:47:24;;;;;;;4.60;3.60;;;27.90;59.40;;;;;;5092190;28;20031;-80
2023/09/18 11:49:57;;;;;;;8.32;3.95;;;27.80;59.60;;;;;;5090761;28;20118;-81
2023/09/18 11:52:25;;;;;;;13.02;4.35;;;27.90;60.20;;;;;;5090819;28;20032;-82
2023/09/18 11:54:52;;;;;;;6.43;4.32;;;27.80;60.10;;;;;;5089792;28;20035;-83
2023/09/18 11:57:22;;;;;;;6.85;3.47;;;27.90;59.70;;;;;;5070814;28;20127;-81
2023/09/18 11:59:48;;;;;;;11.05;3.25;;;28.00;59.20;;;;;;5071679;28;20059;-82
2023/09/18 12:02:27;;;;;;;6.55;3.88;;;28.10;60.40;;;;;;5070433;28;20040;-81
2023/09/18 12:04:54;;;;;;;9.65;3.40;;;28.00;60.10;;;;;;5071519;28;20028;-82
2023/09/18 12:07:20;;;;;;;9.40;3.83;;;28.00;59.60;;;;;;5070464;28;20020;-82
2023/09/18 12:09:46;;;;;;;7.60;3.72;;;27.90;60.40;;;;;;5071730;28;20029;-82
2023/09/18 12:12:14;;;;;;;7.25;4.15;;;28.00;59.60;;;;;;5071527;28;20036;-83
2023/09/18 12:14:41;;;;;;;7.00;3.45;;;28.00;59.00;;;;;;5071807;28;20452;-83
2023/09/18 12:17:07;;;;;;;7.18;4.57;;;28.00;59.30;;;;;;5070205;28;20048;-82
2023/09/18 12:19:35;;;;;;;8.68;4.03;;;28.10;60.00;;;;;;5071375;28;20044;-82
2023/09/18 12:22:01;;;;;;;15.35;3.78;;;28.30;59.70;;;;;;5071315;28;20016;-83
2023/09/18 12:24:27;;;;;;;7.28;4.00;;;28.50;59.00;;;;;;5069962;28;20033;-82
2023/09/18 12:26:54;;;;;;;12.60;3.95;;;28.60;59.00;;;;;;5077103;28;20070;-81
2023/09/18 12:29:23;;;;;;;7.18;4.22;;;28.60;58.70;;;;;;5090201;28;20032;-82
2023/09/18 12:31:50;;;;;;;14.55;4.45;;;28.70;58.90;;;;;;5092127;28;20050;-81
2023/09/18 12:34:21;;;;;;;13.40;4.47;;;28.70;57.80;;;;;;5091061;28;20032;-82
2023/09/18 12:36:47;;;;;;;7.68;3.53;;;28.70;57.30;;;;;;5091026;28;20496;-81
2023/09/18 12:39:17;;;;;;;10.63;3.90;;;28.60;57.50;;;;;;5089061;28;20092;-80
2023/09/18 12:41:49;;;;;;;18.58;5.63;;;28.60;57.90;;;;;;5090188;28;20028;-80
2023/09/18 12:44:16;;;;;;;9.85;4.38;;;28.60;57.50;;;;;;5091395;28;20039;-81
2023/09/18 12:46:43;;;;;;;9.18;3.90;;;28.60;57.90;;;;;;5090380;28;20497;-81
2023/09/18 12:49:16;;;;;;;8.48;4.35;;;28.70;58.10;;;;;;5089255;28;20036;-82